Time;durP1;ratioP1;P1;durP2;ratioP2;P2;SDS_P1;SDS_P2;PMS_P1;PMS_P2;Temp;Humidity;BMP_temperature;BMP_pressure;BME280_temperature;BME280_humidity;BME280_pressure;Samples;Min_cycle;Max_cycle;Signal;HPM_P1;HPM_P2
2021/03/11 00:00:39;;;;;;;11.07;6.63;;;;;;;3.56;58.97;95147.22;5076628;28;20536;-73
2021/03/11 00:03:05;;;;;;;9.70;6.87;;;;;;;3.55;59.20;95148.16;5076993;28;20298;-73
2021/03/11 00:05:31;;;;;;;9.77;6.93;;;;;;;3.63;58.42;95140.69;5093501;28;20214;-72
2021/03/11 00:07:57;;;;;;;10.90;7.33;;;;;;;3.47;59.23;95143.56;5093237;28;20659;-73
2021/03/11 00:10:22;;;;;;;10.37;6.70;;;;;;;3.45;59.15;95150.59;5093676;28;20191;-73
2021/03/11 00:12:47;;;;;;;11.40;6.93;;;;;;;3.40;59.34;95150.09;5093659;28;20179;-73
2021/03/11 00:15:16;;;;;;;10.97;7.33;;;;;;;3.41;59.72;95141.47;5111349;28;20203;-73
2021/03/11 00:17:42;;;;;;;11.60;7.30;;;;;;;3.45;59.47;95137.75;5093585;28;20198;-73
2021/03/11 00:20:10;;;;;;;11.10;7.40;;;;;;;3.38;59.65;95134.00;5093572;28;20206;-73
2021/03/11 00:22:35;;;;;;;12.03;7.40;;;;;;;3.37;60.38;95134.94;5093459;28;20323;-73
2021/03/11 00:25:02;;;;;;;9.60;7.03;;;;;;;3.36;59.89;95133.28;5092928;28;20184;-73
2021/03/11 00:27:28;;;;;;;9.50;6.87;;;;;;;3.46;59.35;95136.81;5093498;28;20168;-73
2021/03/11 00:29:53;;;;;;;9.03;6.27;;;;;;;3.44;59.15;95143.78;5093401;28;20178;-73
2021/03/11 00:32:18;;;;;;;12.30;6.90;;;;;;;3.49;59.27;95149.41;5111693;28;20671;-73
2021/03/11 00:34:44;;;;;;;9.80;6.97;;;;;;;3.56;59.12;95145.47;5093103;28;20719;-73
2021/03/11 00:37:09;;;;;;;9.07;6.63;;;;;;;3.57;58.76;95136.81;5111382;28;20188;-73
2021/03/11 00:39:34;;;;;;;9.00;5.90;;;;;;;3.69;57.53;95135.88;5111607;28;20634;-72
2021/03/11 00:42:00;;;;;;;7.93;5.60;;;;;;;3.74;56.92;95132.97;5093268;28;20200;-73
2021/03/11 00:44:25;;;;;;;8.73;6.27;;;;;;;3.93;56.28;95145.25;5112667;28;20191;-73
2021/03/11 00:46:50;;;;;;;10.27;5.50;;;;;;;4.00;56.63;95145.59;5097161;28;20635;-73
2021/03/11 00:49:16;;;;;;;8.03;5.07;;;;;;;4.05;56.72;95153.75;5097057;28;20180;-73
2021/03/11 00:51:41;;;;;;;7.90;4.80;;;;;;;4.03;57.61;95148.75;5115313;28;20804;-73
2021/03/11 00:54:06;;;;;;;9.23;4.43;;;;;;;4.31;58.85;95151.75;5116358;28;20179;-72
2021/03/11 00:56:31;;;;;;;7.80;4.50;;;;;;;4.32;59.60;95156.75;5098215;28;20579;-73
2021/03/11 00:58:57;;;;;;;6.73;3.70;;;;;;;4.34;60.11;95141.25;5098599;28;20183;-73
2021/03/11 01:01:22;;;;;;;6.67;3.57;;;;;;;4.35;60.25;95137.72;5098105;28;20215;-75
2021/03/11 01:03:47;;;;;;;4.60;3.40;;;;;;;4.30;60.66;95126.97;5098035;28;20186;-72
2021/03/11 01:06:13;;;;;;;5.70;3.57;;;;;;;4.29;60.90;95125.34;5098269;28;20291;-74
2021/03/11 01:08:38;;;;;;;6.17;3.77;;;;;;;4.34;60.26;95120.69;5097827;28;20677;-72
2021/03/11 01:11:04;;;;;;;5.87;3.77;;;;;;;4.38;60.28;95109.22;5098235;28;20867;-72
2021/03/11 01:13:29;;;;;;;6.00;4.03;;;;;;;4.42;60.36;95100.34;5116480;28;20183;-71
2021/03/11 01:15:55;;;;;;;5.00;3.77;;;;;;;4.31;60.41;95108.88;5097880;28;20206;-72
2021/03/11 01:18:20;;;;;;;7.73;3.73;;;;;;;4.28;60.04;95101.41;5096911;28;20606;-73
2021/03/11 01:20:45;;;;;;;7.03;4.20;;;;;;;4.31;59.27;95088.31;5096860;28;20223;-73
2021/03/11 01:23:11;;;;;;;4.93;3.97;;;;;;;4.26;59.67;95077.56;5114645;28;20200;-73
2021/03/11 01:25:36;;;;;;;7.47;4.17;;;;;;;4.22;60.10;95071.84;5114609;28;20179;-73
2021/03/11 01:28:02;;;;;;;9.13;3.97;;;;;;;4.28;61.15;95059.47;5096663;28;20179;-73
2021/03/11 01:30:27;;;;;;;6.70;3.70;;;;;;;4.26;61.08;95042.41;5075723;28;20264;-73
2021/03/11 01:32:52;;;;;;;6.03;3.87;;;;;;;4.28;61.62;95039.72;5092815;28;20199;-73
2021/03/11 01:35:18;;;;;;;6.10;3.40;;;;;;;4.19;62.00;95035.31;5094014;28;20571;-73
2021/03/11 01:37:43;;;;;;;5.43;3.53;;;;;;;4.18;62.35;95020.81;5092880;28;20194;-73
2021/03/11 01:40:09;;;;;;;5.47;4.23;;;;;;;4.15;62.41;95013.34;5085280;28;20186;-73
2021/03/11 01:42:35;;;;;;;5.00;3.53;;;;;;;4.20;61.96;95001.75;5096247;28;20217;-73
2021/03/11 01:45:05;;;;;;;6.13;3.80;;;;;;;4.08;62.71;94997.63;5096012;28;20168;-73
2021/03/11 01:47:30;;;;;;;5.30;3.40;;;;;;;4.11;62.47;94997.34;5096132;28;20299;-73
2021/03/11 01:49:56;;;;;;;7.77;3.50;;;;;;;4.14;62.29;94993.72;5095662;28;20275;-73
2021/03/11 01:52:21;;;;;;;4.47;3.10;;;;;;;4.24;61.50;94982.59;5079094;28;20222;-73
2021/03/11 01:54:46;;;;;;;5.23;3.63;;;;;;;4.26;62.10;94974.78;5095811;28;20179;-73
2021/03/11 01:57:12;;;;;;;7.07;3.53;;;;;;;4.22;62.15;94974.19;5095819;28;20182;-73
2021/03/11 01:59:37;;;;;;;5.93;3.50;;;;;;;4.24;61.37;94967.19;5102576;28;20638;-73
2021/03/11 02:02:03;;;;;;;8.00;3.53;;;;;;;4.25;61.70;94963.69;5095834;28;20424;-73
2021/03/11 02:04:29;;;;;;;5.33;3.73;;;;;;;4.28;61.61;94959.22;5095724;28;20181;-73
2021/03/11 02:06:54;;;;;;;5.80;3.40;;;;;;;4.17;61.92;94952.38;5114176;28;20636;-73
2021/03/11 02:09:19;;;;;;;5.40;3.20;;;;;;;4.28;61.72;94960.03;5095320;28;20187;-73
2021/03/11 02:12:14;;;;;;;4.93;3.40;;;;;;;4.14;62.43;94953.41;5095083;28;20207;-73
2021/03/11 02:14:51;;;;;;;5.20;3.43;;;;;;;4.10;62.63;94948.66;5078015;28;20186;-73
2021/03/11 02:17:19;;;;;;;5.30;3.73;;;;;;;4.10;62.51;94936.63;5095581;28;20183;-73
2021/03/11 02:20:32;;;;;;;5.50;3.37;;;;;;;4.14;62.55;94924.34;5095673;28;20555;-73
2021/03/11 02:23:12;;;;;;;7.20;4.00;;;;;;;4.10;62.61;94908.38;5049122;28;20639;-73
2021/03/11 02:25:45;;;;;;;4.83;3.60;;;;;;;4.14;63.07;94914.88;5095116;28;20175;-73
2021/03/11 02:28:48;;;;;;;6.17;3.23;;;;;;;4.08;63.32;94907.69;5095375;28;20655;-73
2021/03/11 02:31:14;;;;;;;4.60;3.30;;;;;;;4.15;62.97;94895.97;5112946;28;20275;-73
2021/03/11 02:33:39;;;;;;;4.60;3.23;;;;;;;4.12;62.97;94891.06;5095162;28;20178;-73
2021/03/11 02:36:04;;;;;;;5.17;3.40;;;;;;;4.09;63.29;94888.75;5095028;28;20176;-73
2021/03/11 02:38:30;;;;;;;6.87;3.47;;;;;;;4.07;63.54;94887.25;5113339;28;20206;-73
2021/03/11 02:40:58;;;;;;;4.40;3.43;;;;;;;4.01;63.93;94887.75;5094898;28;20250;-73
2021/03/11 02:43:24;;;;;;;4.67;3.50;;;;;;;3.91;63.92;94877.38;5094798;28;20507;-73
2021/03/11 02:45:50;;;;;;;4.07;3.03;;;;;;;3.96;63.43;94870.13;5094654;28;20188;-73
2021/03/11 02:48:16;;;;;;;3.93;3.50;;;;;;;4.01;63.59;94867.19;5095226;28;20173;-73
2021/03/11 02:50:41;;;;;;;5.60;3.40;;;;;;;4.03;62.93;94860.97;5112971;28;20195;-73
2021/03/11 02:53:10;;;;;;;6.80;3.50;;;;;;;4.02;63.52;94864.50;5112679;28;20175;-73
2021/03/11 02:55:35;;;;;;;4.37;3.27;;;;;;;4.11;63.04;94871.44;5094635;28;20186;-73
2021/03/11 02:58:01;;;;;;;5.07;3.57;;;;;;;4.05;63.08;94858.28;5094732;28;20275;-73
2021/03/11 03:00:27;;;;;;;6.93;3.97;;;;;;;4.13;63.52;94854.16;5112666;28;20188;-73
2021/03/11 03:02:54;;;;;;;5.13;3.30;;;;;;;4.11;64.11;94843.19;5094184;28;20698;-73
2021/03/11 03:05:25;;;;;;;6.00;3.67;;;;;;;4.18;64.34;94843.50;5094380;28;20182;-72
2021/03/11 03:07:50;;;;;;;5.30;3.60;;;;;;;4.22;64.43;94840.53;5112394;28;20179;-73
2021/03/11 03:10:18;;;;;;;5.60;3.73;;;;;;;4.25;63.67;94827.47;5094505;28;20195;-73
2021/03/11 03:12:43;;;;;;;8.63;5.40;;;;;;;4.51;61.78;94829.63;5094520;28;20211;-73
2021/03/11 03:15:09;;;;;;;8.07;4.77;;;;;;;4.44;62.25;94823.34;5093866;28;20212;-73
2021/03/11 03:17:35;;;;;;;7.23;4.47;;;;;;;4.51;61.96;94830.44;5094391;28;20177;-73
2021/03/11 03:20:06;;;;;;;7.73;4.23;;;;;;;4.47;61.95;94823.91;5094327;28;20171;-73
2021/03/11 03:22:31;;;;;;;8.07;4.60;;;;;;;4.65;61.36;94825.88;5094373;28;20215;-73
2021/03/11 03:24:56;;;;;;;6.77;4.77;;;;;;;4.91;60.91;94818.53;5093664;28;20249;-73
2021/03/11 03:27:22;;;;;;;8.37;4.87;;;;;;;4.97;60.67;94811.09;5094113;28;20214;-72
2021/03/11 03:29:48;;;;;;;7.40;4.13;;;;;;;4.90;61.55;94814.34;5077327;28;20486;-73
2021/03/11 03:32:13;;;;;;;7.37;4.73;;;;;;;5.08;61.11;94811.00;5094286;28;20188;-73
2021/03/11 03:34:39;;;;;;;7.27;5.20;;;;;;;5.11;60.89;94815.88;5093817;28;20175;-73
2021/03/11 03:37:04;;;;;;;6.83;4.60;;;;;;;5.20;61.10;94821.97;5093695;28;20180;-73
2021/03/11 03:39:29;;;;;;;5.80;4.13;;;;;;;5.24;61.29;94799.38;5094164;28;20176;-72
2021/03/11 03:41:56;;;;;;;6.80;5.00;;;;;;;5.34;61.24;94802.78;5093801;28;20298;-74
2021/03/11 03:44:26;;;;;;;5.67;4.67;;;;;;;5.24;61.68;94797.63;5110718;28;20643;-72
2021/03/11 03:46:51;;;;;;;7.07;4.60;;;;;;;5.26;61.79;94808.59;5093981;28;20556;-73
2021/03/11 03:49:17;;;;;;;6.40;4.60;;;;;;;5.33;62.11;94807.09;5093975;28;20230;-73
2021/03/11 03:51:46;;;;;;;7.13;4.90;;;;;;;5.43;61.99;94811.47;5093885;28;20454;-72
2021/03/11 03:54:13;;;;;;;7.17;4.77;;;;;;;5.50;62.15;94817.72;5112063;28;20222;-73
2021/03/11 03:56:42;;;;;;;6.50;4.70;;;;;;;5.35;62.95;94815.50;5110163;28;20180;-73
2021/03/11 03:59:13;;;;;;;6.43;4.83;;;;;;;5.30;63.08;94815.13;5093876;28;20198;-73
2021/03/11 04:01:39;;;;;;;8.83;5.23;;;;;;;5.32;63.39;94814.97;5093622;28;20230;-73
2021/03/11 04:04:06;;;;;;;7.07;4.30;;;;;;;5.35;63.33;94809.53;5093696;28;20209;-73
2021/03/11 04:06:32;;;;;;;6.97;4.60;;;;;;;5.55;63.16;94794.91;5093455;28;20654;-72
2021/03/11 04:09:00;;;;;;;7.53;4.57;;;;;;;5.55;63.27;94790.56;5093390;28;20587;-73
2021/03/11 04:11:26;;;;;;;7.67;5.00;;;;;;;5.54;63.37;94796.69;5093318;28;20257;-73
2021/03/11 04:13:52;;;;;;;6.87;4.30;;;;;;;5.54;63.53;94798.44;5093790;28;20175;-73
2021/03/11 04:16:18;;;;;;;9.07;4.60;;;;;;;5.47;63.79;94790.44;5093479;28;20195;-73
2021/03/11 04:18:44;;;;;;;4.87;3.87;;;;;;;5.45;64.26;94805.22;5093605;28;20202;-73
2021/03/11 04:21:10;;;;;;;5.80;4.40;;;;;;;5.49;63.68;94788.56;5097666;28;20815;-73
2021/03/11 04:23:36;;;;;;;6.73;4.07;;;;;;;5.54;63.97;94786.38;5097715;28;20172;-72
2021/03/11 04:26:03;;;;;;;6.43;4.30;;;;;;;5.61;63.32;94781.50;5097427;28;20259;-73
2021/03/11 04:28:28;;;;;;;7.20;4.97;;;;;;;5.61;62.88;94784.09;5097273;28;20705;-73
2021/03/11 04:30:54;;;;;;;7.30;4.47;;;;;;;5.65;62.68;94788.84;5097549;28;20274;-72
2021/03/11 04:33:20;;;;;;;7.17;4.67;;;;;;;5.56;63.28;94794.78;5097598;28;20202;-73
2021/03/11 04:35:45;;;;;;;6.43;4.17;;;;;;;5.50;63.91;94797.91;5097311;28;20543;-73
2021/03/11 04:38:11;;;;;;;6.20;4.00;;;;;;;5.56;63.53;94776.75;5115676;28;20176;-73
2021/03/11 04:40:36;;;;;;;6.17;4.40;;;;;;;5.53;63.81;94794.25;5098610;28;20318;-72
2021/03/11 04:43:02;;;;;;;5.33;4.13;;;;;;;5.54;63.40;94783.81;5097397;28;20199;-72
2021/03/11 04:45:28;;;;;;;5.33;3.97;;;;;;;5.60;62.91;94782.47;5097137;28;20250;-72
2021/03/11 04:47:53;;;;;;;6.87;4.37;;;;;;;5.61;62.64;94784.09;5097325;28;20168;-72
2021/03/11 04:50:18;;;;;;;5.50;4.27;;;;;;;5.58;63.28;94794.66;5098295;28;20196;-73
2021/03/11 04:52:44;;;;;;;7.70;3.70;;;;;;;5.56;63.20;94792.19;5115504;28;20799;-72
2021/03/11 04:55:09;;;;;;;6.90;4.07;;;;;;;5.65;62.52;94791.41;5096808;28;20180;-73
2021/03/11 04:57:35;;;;;;;5.43;4.20;;;;;;;5.72;62.76;94789.09;5097045;28;20175;-72
2021/03/11 05:00:01;;;;;;;7.93;4.43;;;;;;;5.63;63.50;94790.72;5097141;28;20267;-73
2021/03/11 05:02:30;;;;;;;7.33;4.43;;;;;;;5.65;63.81;94790.56;5098371;28;20218;-72
2021/03/11 05:04:56;;;;;;;5.90;3.80;;;;;;;5.69;63.79;94792.75;5096831;28;20258;-72
2021/03/11 05:07:21;;;;;;;9.17;4.03;;;;;;;5.65;64.46;94788.00;5096935;28;20714;-73
2021/03/11 05:09:47;;;;;;;6.10;3.73;;;;;;;5.66;64.85;94790.47;5096759;28;20819;-73
2021/03/11 05:12:12;;;;;;;6.63;4.50;;;;;;;5.72;64.46;94794.25;5114019;28;20227;-73
2021/03/11 05:14:37;;;;;;;5.80;3.70;;;;;;;5.73;65.16;94788.13;5113527;28;20549;-73
2021/03/11 05:17:03;;;;;;;6.03;3.53;;;;;;;5.73;65.11;94792.47;5095414;28;20183;-73
2021/03/11 05:19:28;;;;;;;5.80;3.80;;;;;;;5.79;65.11;94797.09;5114133;28;20168;-72
2021/03/11 05:21:53;;;;;;;6.20;3.83;;;;;;;5.65;65.42;94782.84;5094887;28;20738;-73
2021/03/11 05:24:18;;;;;;;5.97;3.47;;;;;;;5.77;65.19;94796.41;5094888;28;20176;-73
2021/03/11 05:26:44;;;;;;;5.80;3.50;;;;;;;5.76;65.43;94780.16;5095316;28;20178;-73
2021/03/11 05:29:09;;;;;;;5.47;3.80;;;;;;;5.77;65.67;94783.53;5113598;28;20712;-72
2021/03/11 05:31:34;;;;;;;6.83;3.80;;;;;;;5.75;66.32;94775.94;5111653;28;20730;-72
2021/03/11 05:34:00;;;;;;;5.07;3.97;;;;;;;5.70;66.03;94783.28;5096236;28;20202;-73
2021/03/11 05:36:28;;;;;;;6.87;3.90;;;;;;;5.66;66.63;94792.22;5113307;28;20251;-73
2021/03/11 05:38:53;;;;;;;6.07;3.67;;;;;;;5.72;66.92;94791.66;5113345;28;20184;-73
2021/03/11 05:41:20;;;;;;;4.87;3.37;;;;;;;5.69;66.76;94773.91;5095174;28;20321;-73
2021/03/11 05:43:45;;;;;;;6.63;3.90;;;;;;;5.67;67.55;94770.66;5094687;28;20180;-73
2021/03/11 05:46:11;;;;;;;8.10;3.57;;;;;;;5.66;67.18;94769.03;5094720;28;20191;-73
2021/03/11 05:48:39;;;;;;;6.83;3.20;;;;;;;5.63;67.48;94764.97;5095124;28;20178;-72
2021/03/11 05:51:05;;;;;;;6.47;3.37;;;;;;;5.66;67.49;94751.03;5094906;28;20839;-73
2021/03/11 05:53:30;;;;;;;4.27;3.27;;;;;;;5.63;67.84;94762.38;5094850;28;20250;-72
2021/03/11 05:55:56;;;;;;;4.30;3.40;;;;;;;5.64;67.70;94753.69;5062793;28;20188;-72
2021/03/11 05:58:21;;;;;;;3.80;3.00;;;;;;;5.63;67.75;94761.56;5094606;28;20203;-72
2021/03/11 06:00:47;;;;;;;4.63;3.33;;;;;;;5.71;67.08;94738.53;5070181;28;20210;-75
2021/03/11 06:03:12;;;;;;;4.83;3.17;;;;;;;5.69;67.94;94736.09;5102864;28;20338;-73
2021/03/11 06:05:38;;;;;;;4.63;3.50;;;;;;;5.74;67.65;94722.78;5095295;28;20190;-73
2021/03/11 06:08:06;;;;;;;6.33;3.47;;;;;;;5.76;67.23;94708.03;5093306;28;20520;-72
2021/03/11 06:10:32;;;;;;;8.13;3.17;;;;;;;5.72;67.23;94718.72;5102908;28;20195;-73
2021/03/11 06:12:57;;;;;;;5.27;3.23;;;;;;;5.75;67.15;94714.13;5076766;28;528405;-73
2021/03/11 06:15:37;;;;;;;3.83;3.00;;;;;;;5.77;67.52;94721.72;5094069;28;20621;-73
2021/03/11 06:18:06;;;;;;;4.77;3.07;;;;;;;5.80;67.07;94711.94;5095386;28;20183;-73
2021/03/11 06:20:32;;;;;;;5.73;3.03;;;;;;;5.84;66.77;94700.41;5095206;28;20219;-72
2021/03/11 06:22:57;;;;;;;3.70;2.67;;;;;;;5.86;66.83;94695.91;5095586;28;20663;-72
2021/03/11 06:25:23;;;;;;;4.33;2.70;;;;;;;5.94;66.73;94711.53;5088696;27;20209;-73
2021/03/11 06:27:49;;;;;;;4.90;2.53;;;;;;;6.06;66.17;94698.47;5077943;28;20636;-75
2021/03/11 06:30:46;;;;;;;5.30;2.80;;;;;;;6.10;66.04;94708.38;5095093;28;20711;-73
2021/03/11 06:33:12;;;;;;;3.83;2.50;;;;;;;6.09;66.26;94705.91;4994267;28;20195;-73
2021/03/11 06:35:38;;;;;;;4.43;2.60;;;;;;;6.19;65.98;94710.09;4994012;28;20183;-73
2021/03/11 06:38:03;;;;;;;4.43;2.60;;;;;;;6.18;66.06;94711.06;5010317;28;20608;-73
2021/03/11 06:40:30;;;;;;;3.60;2.50;;;;;;;6.32;65.83;94714.94;4994068;28;20199;-73
2021/03/11 06:43:09;;;;;;;3.17;2.53;;;;;;;6.34;66.39;94715.59;4993120;28;20218;-73
2021/03/11 06:45:34;;;;;;;3.07;2.40;;;;;;;6.42;66.19;94718.28;4993222;28;20236;-73
2021/03/11 06:48:21;;;;;;;2.40;1.90;;;;;;;6.49;66.40;94706.44;4997872;28;20187;-73
2021/03/11 06:50:47;;;;;;;3.27;2.20;;;;;;;6.62;65.88;94713.81;4993841;28;20596;-73
2021/03/11 06:53:12;;;;;;;3.17;2.37;;;;;;;6.64;65.90;94722.25;4993512;28;20183;-73
2021/03/11 06:55:37;;;;;;;2.73;2.20;;;;;;;6.70;65.91;94720.84;4992941;28;20218;-72
2021/03/11 06:58:14;;;;;;;2.80;2.07;;;;;;;6.74;65.95;94714.47;4992007;28;20195;-73
2021/03/11 07:00:39;;;;;;;4.00;2.00;;;;;;;6.74;65.97;94717.03;5007143;28;20229;-74
2021/03/11 07:03:05;;;;;;;3.47;2.37;;;;;;;6.77;65.85;94727.06;5008564;28;20227;-73
2021/03/11 07:05:37;;;;;;;4.70;2.47;;;;;;;6.83;65.68;94723.91;5016253;28;20214;-73
2021/03/11 07:08:19;;;;;;;2.97;2.20;;;;;;;6.85;65.57;94713.44;5009580;28;20368;-73
2021/03/11 07:10:47;;;;;;;2.33;1.90;;;;;;;6.88;65.66;94705.41;5094434;28;20689;-72
2021/03/11 07:13:13;;;;;;;3.27;2.10;;;;;;;6.88;65.97;94693.31;5093518;28;20261;-73
2021/03/11 07:15:38;;;;;;;1.97;1.60;;;;;;;6.96;66.22;94708.88;5076697;28;20542;-73
2021/03/11 07:18:12;;;;;;;5.40;2.03;;;;;;;6.89;66.38;94692.38;5093886;28;20220;-72
2021/03/11 07:20:38;;;;;;;2.50;1.97;;;;;;;6.91;66.11;94698.19;5072965;28;20200;-74
2021/03/11 07:23:06;;;;;;;3.23;2.00;;;;;;;6.91;66.39;94703.38;5109493;28;20281;-74
2021/03/11 07:25:38;;;;;;;5.07;2.20;;;;;;;7.00;66.77;94704.25;5109527;28;20540;-74
2021/03/11 07:28:05;;;;;;;2.17;1.70;;;;;;;7.01;66.70;94701.53;5101673;28;20191;-75
2021/03/11 07:30:31;;;;;;;2.33;2.00;;;;;;;7.12;66.69;94704.84;5092985;28;20246;-73
2021/03/11 07:33:00;;;;;;;2.73;1.83;;;;;;;7.14;66.38;94708.09;5093685;28;20644;-73
2021/03/11 07:35:27;;;;;;;2.97;2.20;;;;;;;7.15;66.53;94720.03;5092665;28;20650;-74
2021/03/11 07:37:53;;;;;;;2.13;1.90;;;;;;;7.29;65.89;94711.78;5110452;28;20233;-74
2021/03/11 07:40:19;;;;;;;2.50;1.90;;;;;;;7.29;65.05;94704.03;5093250;28;20268;-73
2021/03/11 07:42:44;;;;;;;2.60;1.67;;;;;;;7.39;65.19;94725.44;5092930;28;20212;-73
2021/03/11 07:45:11;;;;;;;5.17;1.97;;;;;;;7.30;64.83;94709.06;5111010;28;20655;-73
2021/03/11 07:47:37;;;;;;;2.33;1.70;;;;;;;7.34;65.07;94718.16;5091703;28;20184;-73
2021/03/11 07:50:04;;;;;;;3.37;1.90;;;;;;;7.38;64.77;94710.91;5087554;28;20557;-73
2021/03/11 07:52:31;;;;;;;2.10;1.60;;;;;;;7.48;64.34;94700.47;5110247;28;20176;-73
2021/03/11 07:54:57;;;;;;;2.80;1.93;;;;;;;7.64;64.02;94703.19;5092527;28;20192;-73
2021/03/11 07:57:22;;;;;;;2.20;1.50;;;;;;;7.74;63.59;94706.50;5091074;28;20332;-73
2021/03/11 07:59:47;;;;;;;2.30;1.53;;;;;;;7.76;63.48;94703.75;5110947;28;20183;-73
2021/03/11 08:02:14;;;;;;;2.40;1.53;;;;;;;7.86;63.56;94692.38;5092615;28;20210;-75
2021/03/11 08:04:43;;;;;;;1.90;1.47;;;;;;;8.02;63.52;94699.41;5110677;28;20183;-74
2021/03/11 08:07:22;;;;;;;3.43;1.73;;;;;;;8.07;63.55;94692.03;5107883;28;20188;-76
2021/03/11 08:09:55;;;;;;;3.60;1.80;;;;;;;8.18;62.83;94696.13;5098020;28;20617;-72
2021/03/11 08:12:34;;;;;;;3.27;1.33;;;;;;;7.99;63.05;94699.72;5092786;28;20190;-74
2021/03/11 08:15:03;;;;;;;2.30;1.97;;;;;;;7.95;63.10;94682.88;5108897;28;20175;-73
2021/03/11 08:17:46;;;;;;;3.50;1.60;;;;;;;8.06;63.16;94694.75;5092854;28;20168;-74
2021/03/11 08:20:20;;;;;;;1.60;1.40;;;;;;;8.05;63.30;94688.78;5093149;28;20199;-74
2021/03/11 08:22:52;;;;;;;2.40;1.60;;;;;;;8.08;63.06;94698.81;5111483;28;20278;-73
2021/03/11 08:25:32;;;;;;;3.90;1.40;;;;;;;8.09;62.84;94695.25;5109989;28;20208;-73
2021/03/11 08:28:07;;;;;;;1.63;1.30;;;;;;;8.07;63.19;94676.50;5092530;28;20190;-73
2021/03/11 08:30:38;;;;;;;3.33;1.57;;;;;;;8.20;62.85;94669.13;5111421;28;20233;-73
2021/03/11 08:33:14;;;;;;;1.93;1.70;;;;;;;8.38;62.15;94642.41;5092893;28;20184;-73
2021/03/11 08:35:40;;;;;;;1.50;1.40;;;;;;;8.39;62.36;94668.13;5105445;28;20171;-73
2021/03/11 08:38:23;;;;;;;1.63;1.43;;;;;;;8.49;61.99;94666.22;5097523;28;20670;-73
2021/03/11 08:41:07;;;;;;;3.10;1.93;;;;;;;8.51;62.07;94650.53;5092317;28;20207;-73
2021/03/11 08:43:38;;;;;;;2.03;1.63;;;;;;;8.49;61.61;94673.19;5109634;28;20206;-73
2021/03/11 08:46:14;;;;;;;4.50;1.50;;;;;;;8.42;62.50;94664.41;5110527;28;20184;-74
2021/03/11 08:48:40;;;;;;;1.63;1.27;;;;;;;8.31;62.39;94673.25;5092691;28;20183;-74
2021/03/11 08:51:09;;;;;;;1.53;1.40;;;;;;;8.28;62.63;94665.75;5088730;28;20200;-73
2021/03/11 08:53:37;;;;;;;2.77;1.60;;;;;;;8.27;62.92;94658.16;5107214;28;20254;-73
2021/03/11 08:56:22;;;;;;;3.00;1.50;;;;;;;8.30;62.92;94658.66;5107931;28;20639;-73
2021/03/11 08:59:00;;;;;;;2.23;1.40;;;;;;;8.32;63.19;94659.34;5105747;28;20168;-73
2021/03/11 09:01:31;;;;;;;1.20;1.10;;;;;;;8.22;63.26;94653.47;5102838;28;20670;-73
2021/03/11 09:03:57;;;;;;;1.30;1.20;;;;;;;8.27;63.43;94650.41;5110138;28;20734;-74
2021/03/11 09:06:51;;;;;;;3.30;1.20;;;;;;;8.24;63.52;94654.94;5077698;28;20532;-74
2021/03/11 09:09:30;;;;;;;2.47;1.30;;;;;;;8.20;63.72;94653.59;5112770;28;21151;-74
2021/03/11 09:11:55;;;;;;;2.43;1.17;;;;;;;8.23;63.74;94661.06;5095814;28;20203;-74
2021/03/11 09:14:22;;;;;;;2.30;1.40;;;;;;;8.20;63.85;94663.13;5095634;28;20183;-74
2021/03/11 09:16:47;;;;;;;2.30;1.13;;;;;;;8.18;64.13;94652.97;5114227;28;20569;-74
2021/03/11 09:19:13;;;;;;;1.43;1.23;;;;;;;8.16;64.36;94644.53;5094811;28;20181;-74
2021/03/11 09:21:38;;;;;;;1.30;1.20;;;;;;;8.20;64.42;94647.63;5113955;27;20264;-74
2021/03/11 09:24:04;;;;;;;1.43;0.93;;;;;;;8.32;64.60;94635.25;5114000;28;20184;-75
2021/03/11 09:26:33;;;;;;;1.23;1.00;;;;;;;8.41;64.33;94624.00;5113758;28;20601;-74
2021/03/11 09:28:58;;;;;;;1.27;1.03;;;;;;;8.54;64.04;94626.13;5092681;28;20191;-73
2021/03/11 09:31:28;;;;;;;5.50;0.90;;;;;;;8.61;64.18;94622.75;5095360;28;20196;-74
2021/03/11 09:33:59;;;;;;;0.90;0.90;;;;;;;8.72;64.08;94629.41;5095973;28;20175;-74
2021/03/11 09:36:24;;;;;;;1.03;0.80;;;;;;;8.77;63.93;94632.34;5095620;28;20183;-74
2021/03/11 09:38:51;;;;;;;2.97;0.90;;;;;;;8.89;63.60;94630.25;5095470;28;20212;-75
2021/03/11 09:41:24;;;;;;;4.20;0.87;;;;;;;8.96;63.28;94620.88;5079675;28;20686;-74
2021/03/11 09:43:49;;;;;;;3.30;0.90;;;;;;;9.02;63.18;94621.06;5083078;28;20640;-74
2021/03/11 09:46:17;;;;;;;1.17;1.03;;;;;;;8.97;63.32;94625.09;5095438;28;20214;-74
2021/03/11 09:48:53;;;;;;;1.30;0.80;;;;;;;9.04;63.10;94623.47;5097082;28;20230;-74
2021/03/11 09:51:27;;;;;;;1.53;0.90;;;;;;;9.00;63.31;94632.53;5095062;28;20187;-74
2021/03/11 09:53:57;;;;;;;1.17;0.90;;;;;;;9.04;62.94;94613.94;5113011;28;20230;-74
2021/03/11 09:56:28;;;;;;;1.00;0.90;;;;;;;9.10;63.30;94620.25;5095383;28;20727;-74
2021/03/11 09:58:56;;;;;;;2.03;0.93;;;;;;;9.20;63.57;94613.13;5086474;28;20207;-74
2021/03/11 10:01:46;;;;;;;1.00;0.83;;;;;;;9.45;62.60;94610.50;5098603;28;20196;-73
2021/03/11 10:04:17;;;;;;;1.23;1.03;;;;;;;9.51;62.91;94599.50;5078142;28;20184;-74
2021/03/11 10:06:51;;;;;;;2.30;0.60;;;;;;;9.62;62.73;94615.50;5099893;28;20187;-74
2021/03/11 10:09:17;;;;;;;1.07;0.60;;;;;;;9.75;62.76;94609.84;5086334;28;20218;-74
2021/03/11 10:11:47;;;;;;;1.00;0.77;;;;;;;9.77;63.00;94599.28;5093663;28;20235;-74
2021/03/11 10:14:17;;;;;;;0.73;0.60;;;;;;;9.81;62.90;94611.78;5094989;28;20258;-74
2021/03/11 10:16:48;;;;;;;2.30;0.70;;;;;;;9.87;63.17;94620.66;5101005;28;20651;-74
2021/03/11 10:19:16;;;;;;;0.83;0.83;;;;;;;9.94;63.47;94598.28;5076831;28;20267;-75
2021/03/11 10:21:55;;;;;;;1.20;1.10;;;;;;;10.09;62.84;94613.97;5093566;28;20338;-75
2021/03/11 10:24:41;;;;;;;0.70;0.70;;;;;;;10.32;63.08;94614.88;5112809;28;20179;-75
2021/03/11 10:27:23;;;;;;;1.63;1.10;;;;;;;10.22;64.80;94614.25;5077456;28;20180;-74
2021/03/11 10:29:59;;;;;;;2.77;0.63;;;;;;;10.06;66.20;94609.09;5095528;28;20182;-74
2021/03/11 10:32:25;;;;;;;1.10;0.87;;;;;;;10.09;66.38;94609.59;5094359;28;20651;-74
2021/03/11 10:34:51;;;;;;;2.07;1.23;;;;;;;10.11;67.69;94612.81;5094112;28;20647;-74
2021/03/11 10:37:31;;;;;;;2.07;0.90;;;;;;;9.82;69.27;94628.16;5112615;28;20187;-73
2021/03/11 10:39:58;;;;;;;0.90;0.80;;;;;;;9.76;70.21;94633.97;5082384;28;20179;-76
2021/03/11 10:42:24;;;;;;;0.93;0.83;;;;;;;9.46;72.32;94633.69;5100306;28;20296;-73
2021/03/11 10:44:55;;;;;;;0.60;0.43;;;;;;;9.26;73.01;94629.78;5111991;28;20250;-73
2021/03/11 10:47:20;;;;;;;9.33;3.87;;;;;;;9.21;74.14;94629.47;5094009;28;20179;-74
2021/03/11 10:49:46;;;;;;;2.70;1.67;;;;;;;8.96;74.97;94646.78;5096326;28;20183;-73
2021/03/11 10:52:12;;;;;;;6.83;4.17;;;;;;;8.99;75.39;94634.31;5112426;28;20191;-73
2021/03/11 10:54:39;;;;;;;2.00;1.27;;;;;;;8.90;75.93;94642.22;5100436;28;20734;-73
2021/03/11 10:57:17;;;;;;;1.20;1.07;;;;;;;8.78;76.24;94631.38;5112102;27;20526;-73
2021/03/11 10:59:50;;;;;;;3.53;1.47;;;;;;;8.60;76.64;94634.06;5076930;28;20176;-73
2021/03/11 11:02:16;;;;;;;2.80;1.17;;;;;;;8.55;76.94;94641.47;5094038;28;20219;-73
2021/03/11 11:04:41;;;;;;;1.57;0.90;;;;;;;8.57;77.28;94642.16;5093126;28;20203;-73
2021/03/11 11:07:07;;;;;;;1.30;0.60;;;;;;;8.45;77.66;94648.56;5093836;28;20215;-73
2021/03/11 11:09:33;;;;;;;3.23;1.20;;;;;;;8.40;78.26;94640.47;5093739;28;20176;-73
2021/03/11 11:11:58;;;;;;;3.53;1.00;;;;;;;8.28;79.05;94647.66;5088780;28;20680;-73
2021/03/11 11:14:23;;;;;;;1.30;0.90;;;;;;;8.27;79.01;94655.59;5102330;28;20186;-72
2021/03/11 11:16:49;;;;;;;2.03;1.20;;;;;;;8.15;78.24;94635.19;5100389;28;20195;-72
2021/03/11 11:19:14;;;;;;;9.93;4.97;;;;;;;8.13;79.66;94636.31;5111029;28;20894;-72
2021/03/11 11:21:39;;;;;;;0.73;0.73;;;;;;;8.13;78.92;94642.28;5088313;28;20257;-72
2021/03/11 11:24:05;;;;;;;2.33;1.30;;;;;;;8.04;80.09;94637.19;5088345;28;20279;-72
2021/03/11 11:26:30;;;;;;;0.90;0.60;;;;;;;8.01;80.17;94630.56;5082090;27;20288;-72
2021/03/11 11:28:56;;;;;;;0.50;0.50;;;;;;;8.07;80.08;94639.50;5114909;27;20519;-72
2021/03/11 11:31:21;;;;;;;1.17;1.07;;;;;;;8.09;79.60;94630.59;5111002;28;20207;-72
2021/03/11 11:33:46;;;;;;;0.70;0.50;;;;;;;8.08;79.94;94629.00;5111691;28;20178;-72
2021/03/11 11:36:11;;;;;;;2.00;0.53;;;;;;;8.13;79.40;94605.28;5091681;28;20179;-75
2021/03/11 11:38:37;;;;;;;1.83;0.60;;;;;;;8.36;79.32;94615.88;5091711;28;20185;-72
2021/03/11 11:41:02;;;;;;;0.70;0.63;;;;;;;8.42;79.10;94594.56;5107889;28;20638;-73
2021/03/11 11:43:27;;;;;;;1.07;0.83;;;;;;;8.29;79.11;94591.56;5085454;28;20227;-72
2021/03/11 11:45:53;;;;;;;1.60;0.90;;;;;;;8.48;78.32;94587.00;5096443;28;20215;-72